Time;durP1;ratioP1;P1;durP2;ratioP2;P2;SDS_P1;SDS_P2;PMS_P1;PMS_P2;Temp;Humidity;BMP_temperature;BMP_pressure;BME280_temperature;BME280_humidity;BME280_pressure;Samples;Min_cycle;Max_cycle;Signal;HPM_P1;HPM_P2
2023/04/28 00:02:05;;;;;;;;;;;;;;;;;;5105284;28;19924;-72
2023/04/28 00:04:32;;;;;;;;;;;;;;;;;;5093211;28;20361;-72
2023/04/28 00:06:59;;;;;;;;;;;;;;;;;;5101209;28;19931;-72
2023/04/28 00:09:26;;;;;;;;;;;;;;;;;;5093105;28;19964;-72
2023/04/28 00:11:53;;;;;;;;;;;;;;;;;;5100277;28;19951;-73
2023/04/28 00:14:20;;;;;;;;;;;;;;;;;;5100381;28;19924;-72
2023/04/28 00:16:47;;;;;;;;;;;;;;;;;;5097475;28;20348;-72
2023/04/28 00:19:14;;;;;;;;;;;;;;;;;;5099447;28;19924;-73
2023/04/28 00:21:41;;;;;;;;;;;;;;;;;;5099041;28;19924;-72
2023/04/28 00:24:08;;;;;;;;;;;;;;;;;;5096752;28;19981;-73
2023/04/28 00:26:35;;;;;;;;;;;;;;;;;;5103344;28;20063;-73
2023/04/28 00:29:02;;;;;;;;;;;;;;;;;;5096584;28;20426;-73
2023/04/28 00:31:29;;;;;;;;;;;;;;;;;;5096408;28;19963;-73
2023/04/28 00:33:56;;;;;;;;;;;;;;;;;;5097640;28;19924;-73
2023/04/28 00:36:24;;;;;;;;;;;;;;;;;;5093912;28;19968;-72
2023/04/28 00:38:51;;;;;;;;;;;;;;;;;;5099937;28;19924;-70
2023/04/28 00:41:18;;;;;;;;;;;;;;;;;;5096885;28;19925;-71
2023/04/28 00:43:45;;;;;;;;;;;;;;;;;;5095949;28;19924;-72
2023/04/28 00:46:12;;;;;;;;;;;;;;;;;;5103476;28;19970;-73
2023/04/28 00:48:39;;;;;;;;;;;;;;;;;;5091101;28;19971;-72
2023/04/28 00:51:06;;;;;;;;;;;;;;;;;;5098645;28;20407;-73
2023/04/28 00:53:33;;;;;;;;;;;;;;;;;;5094998;28;20402;-72
2023/04/28 00:56:01;;;;;;;;;;;;;;;;;;5087256;28;20417;-72
2023/04/28 00:58:28;;;;;;;;;;;;;;;;;;5099680;28;19971;-72
2023/04/28 01:00:55;;;;;;;;;;;;;;;;;;5094157;28;19963;-73
2023/04/28 01:03:22;;;;;;;;;;;;;;;;;;5098773;28;19928;-70
2023/04/28 01:05:49;;;;;;;;;;;;;;;;;;5092114;28;19928;-72
2023/04/28 01:08:16;;;;;;;;;;;;;;;;;;5090662;28;19986;-73
2023/04/28 01:10:44;;;;;;;;;;;;;;;;;;5100496;28;19938;-73
2023/04/28 01:13:16;;;;;;;;;;;;;;;;;;5099122;28;19931;-73
2023/04/28 01:15:43;;;;;;;;;;;;;;;;;;5094716;28;19935;-73
2023/04/28 01:18:10;;;;;;;;;;;;;;;;;;5089812;28;19973;-73
2023/04/28 01:20:37;;;;;;;;;;;;;;;;;;5093365;28;19924;-73
2023/04/28 01:23:04;;;;;;;;;;;;;;;;;;5094184;28;19924;-73
2023/04/28 01:25:32;;;;;;;;;;;;;;;;;;5098756;28;19924;-71
2023/04/28 01:27:59;;;;;;;;;;;;;;;;;;5094196;28;19924;-73
2023/04/28 01:30:26;;;;;;;;;;;;;;;;;;5093144;28;19946;-72
2023/04/28 01:32:53;;;;;;;;;;;;;;;;;;5090774;28;19978;-70
2023/04/28 01:35:20;;;;;;;;;;;;;;;;;;5093556;28;19963;-73
2023/04/28 01:37:48;;;;;;;;;;;;;;;;;;5097353;28;19924;-73
2023/04/28 01:40:15;;;;;;;;;;;;;;;;;;5092148;28;19924;-73
2023/04/28 01:42:42;;;;;;;;;;;;;;;;;;5099138;28;19932;-72
2023/04/28 01:45:09;;;;;;;;;;;;;;;;;;5093195;28;19974;-72
2023/04/28 01:47:37;;;;;;;;;;;;;;;;;;5098363;28;19924;-72
2023/04/28 01:50:04;;;;;;;;;;;;;;;;;;5099033;28;19928;-72
2023/04/28 01:52:31;;;;;;;;;;;;;;;;;;5100382;28;19928;-73
2023/04/28 01:54:58;;;;;;;;;;;;;;;;;;5095262;28;19973;-73
2023/04/28 01:57:27;;;;;;;;;;;;;;;;;;5098841;28;19924;-72
2023/04/28 01:59:54;;;;;;;;;;;;;;;;;;5097612;28;19924;-73
2023/04/28 02:02:21;;;;;;;;;;;;;;;;;;5094484;28;20288;-72
2023/04/28 02:04:49;;;;;;;;;;;;;;;;;;5101406;28;19924;-73
2023/04/28 02:07:16;;;;;;;;;;;;;;;;;;5094400;28;19931;-73
2023/04/28 02:09:43;;;;;;;;;;;;;;;;;;5096143;28;20284;-72
2023/04/28 02:12:10;;;;;;;;;;;;;;;;;;5097893;28;20317;-72
2023/04/28 02:14:37;;;;;;;;;;;;;;;;;;5106950;28;19923;-71
2023/04/28 02:17:04;;;;;;;;;;;;;;;;;;5108516;28;19931;-72
2023/04/28 02:19:33;;;;;;;;;;;;;;;;;;5101621;28;19976;-71
2023/04/28 02:22:00;;;;;;;;;;;;;;;;;;5099560;28;19924;-71
2023/04/28 02:24:27;;;;;;;;;;;;;;;;;;5093753;28;19932;-72
2023/04/28 02:26:54;;;;;;;;;;;;;;;;;;5102426;28;19927;-72
2023/04/28 02:29:21;;;;;;;;;;;;;;;;;;5096288;28;19924;-72
2023/04/28 02:31:48;;;;;;;;;;;;;;;;;;5100496;28;19947;-72
2023/04/28 02:34:16;;;;;;;;;;;;;;;;;;5102123;28;19927;-70
2023/04/28 02:36:43;;;;;;;;;;;;;;;;;;5100395;28;20052;-73
2023/04/28 02:39:10;;;;;;;;;;;;;;;;;;5104107;28;19931;-72
2023/04/28 02:41:37;;;;;;;;;;;;;;;;;;5100074;28;19985;-72
2023/04/28 02:44:04;;;;;;;;;;;;;;;;;;5099000;28;19927;-73
2023/04/28 02:46:31;;;;;;;;;;;;;;;;;;5094047;28;20386;-72
2023/04/28 02:48:58;;;;;;;;;;;;;;;;;;5105064;28;19924;-71
2023/04/28 02:51:25;;;;;;;;;;;;;;;;;;5093318;28;20345;-72
2023/04/28 02:53:52;;;;;;;;;;;;;;;;;;5089592;28;20008;-70
2023/04/28 02:56:20;;;;;;;;;;;;;;;;;;5089244;28;19929;-70
2023/04/28 02:58:47;;;;;;;;;;;;;;;;;;5100254;28;19932;-72
2023/04/28 03:01:14;;;;;;;;;;;;;;;;;;5103874;28;20291;-70
2023/04/28 03:03:41;;;;;;;;;;;;;;;;;;5101533;28;19924;-70
2023/04/28 03:06:08;;;;;;;;;;;;;;;;;;5105772;28;19927;-73
2023/04/28 03:08:35;;;;;;;;;;;;;;;;;;5097697;28;19932;-71
2023/04/28 03:11:02;;;;;;;;;;;;;;;;;;5101426;28;19924;-72
2023/04/28 03:13:29;;;;;;;;;;;;;;;;;;5094636;28;19928;-72
2023/04/28 03:15:56;;;;;;;;;;;;;;;;;;5105554;28;20355;-73
2023/04/28 03:18:24;;;;;;;;;;;;;;;;;;5096488;28;19924;-70
2023/04/28 03:20:51;;;;;;;;;;;;;;;;;;5103267;28;19924;-72
2023/04/28 03:23:18;;;;;;;;;;;;;;;;;;5099427;28;20276;-72
2023/04/28 03:25:45;;;;;;;;;;;;;;;;;;5099481;28;19934;-72
2023/04/28 03:28:12;;;;;;;;;;;;;;;;;;5101870;28;19928;-71
2023/04/28 03:30:40;;;;;;;;;;;;;;;;;;5095727;28;20015;-72
2023/04/28 03:33:07;;;;;;;;;;;;;;;;;;5096954;28;19924;-73
2023/04/28 03:35:34;;;;;;;;;;;;;;;;;;5102587;28;20473;-71
2023/04/28 03:38:01;;;;;;;;;;;;;;;;;;5095824;28;19931;-73
2023/04/28 03:40:28;;;;;;;;;;;;;;;;;;5095575;28;19924;-71
2023/04/28 03:43:16;;;;;;;;;;;;;;;;;;5094270;28;20381;-71
2023/04/28 03:46:08;;;;;;;;;;;;;;;;;;5088853;28;20536;-69
2023/04/28 03:48:35;;;;;;;;;;;;;;;;;;5092601;28;19924;-70
2023/04/28 03:51:02;;;;;;;;;;;;;;;;;;5099426;28;19924;-71
2023/04/28 03:53:29;;;;;;;;;;;;;;;;;;5097238;28;19981;-72
2023/04/28 03:55:57;;;;;;;;;;;;;;;;;;5092075;28;20348;-71
2023/04/28 03:58:24;;;;;;;;;;;;;;;;;;5092409;28;20395;-72
2023/04/28 04:00:51;;;;;;;;;;;;;;;;;;5093724;28;19924;-71
2023/04/28 04:03:20;;;;;;;;;;;;;;;;;;5096190;28;19977;-70
2023/04/28 04:05:47;;;;;;;;;;;;;;;;;;5092270;28;19955;-71
2023/04/28 04:08:15;;;;;;;;;;;;;;;;;;5094997;28;20398;-71
2023/04/28 04:10:42;;;;;;;;;;;;;;;;;;5096830;28;19932;-71
2023/04/28 04:13:09;;;;;;;;;;;;;;;;;;5094660;28;19931;-71
2023/04/28 04:15:36;;;;;;;;;;;;;;;;;;5101772;28;20282;-72
2023/04/28 04:18:04;;;;;;;;;;;;;;;;;;5098663;28;20019;-71
2023/04/28 04:20:43;;;;;;;;;;;;;;;;;;5095558;28;19990;-71
2023/04/28 04:23:10;;;;;;;;;;;;;;;;;;5102485;28;19963;-72
2023/04/28 04:25:37;;;;;;;;;;;;;;;;;;5091841;28;19930;-71
2023/04/28 04:28:04;;;;;;;;;;;;;;;;;;5094227;28;20407;-71
2023/04/28 04:30:32;;;;;;;;;;;;;;;;;;5097050;28;19931;-72
2023/04/28 04:32:59;;;;;;;;;;;;;;;;;;5097231;28;19924;-69
2023/04/28 04:35:26;;;;;;;;;;;;;;;;;;5098284;28;19924;-71
2023/04/28 04:37:53;;;;;;;;;;;;;;;;;;5098573;28;20347;-71
2023/04/28 04:40:20;;;;;;;;;;;;;;;;;;5099507;28;19989;-71
2023/04/28 04:42:49;;;;;;;;;;;;;;;;;;5098806;28;19946;-72
2023/04/28 04:45:18;;;;;;;;;;;;;;;;;;5098792;28;20010;-72
2023/04/28 04:47:47;;;;;;;;;;;;;;;;;;5091535;28;19974;-74
2023/04/28 04:50:14;;;;;;;;;;;;;;;;;;5089217;28;19932;-72
2023/04/28 04:52:41;;;;;;;;;;;;;;;;;;5091702;28;20401;-72
2023/04/28 04:55:09;;;;;;;;;;;;;;;;;;5089877;28;20031;-73
2023/04/28 04:57:37;;;;;;;;;;;;;;;;;;5096193;28;19963;-75
2023/04/28 05:00:08;;;;;;;;;;;;;;;;;;5103438;28;19924;-74
2023/04/28 05:02:35;;;;;;;;;;;;;;;;;;5087298;28;20446;-71
2023/04/28 05:05:04;;;;;;;;;;;;;;;;;;5090674;28;19924;-70
2023/04/28 05:07:31;;;;;;;;;;;;;;;;;;5096431;28;19928;-71
2023/04/28 05:09:59;;;;;;;;;;;;;;;;;;5103530;28;19928;-71
2023/04/28 05:12:26;;;;;;;;;;;;;;;;;;5089761;28;19992;-71
2023/04/28 05:14:53;;;;;;;;;;;;;;;;;;5094455;28;20417;-69
2023/04/28 05:17:21;;;;;;;;;;;;;;;;;;5094586;28;20356;-72
2023/04/28 05:19:48;;;;;;;;;;;;;;;;;;5119642;22;19929;-70
2023/04/28 05:22:16;;;;;;;;;;;;;;;;;;5055974;28;19924;-68
2023/04/28 05:24:43;;;;;;;;;;;;;;;;;;5050305;28;19987;-68
2023/04/28 05:27:10;;;;;;;;;;;;;;;;;;5047693;28;20020;-68
2023/04/28 05:29:37;;;;;;;;;;;;;;;;;;5047461;28;19960;-68
2023/04/28 05:32:04;;;;;;;;;;;;;;;;;;5029567;28;19976;-67
2023/04/28 05:34:31;;;;;;;;;;;;;;;;;;5026322;28;20270;-69
2023/04/28 05:36:58;;;;;;;;;;;;;;;;;;5030054;28;19936;-70
2023/04/28 05:39:28;;;;;;;;;;;;;;;;;;5031716;28;19975;-71
2023/04/28 05:41:57;;;;;;;;;;;;;;;;;;5036448;28;19934;-70
2023/04/28 05:44:24;;;;;;;;;;;;;;;;;;5039490;28;20400;-71
2023/04/28 05:46:51;;;;;;;;;;;;;;;;;;5037640;28;19933;-70
2023/04/28 05:49:23;;;;;;;;;;;;;;;;;;5030330;28;20296;-70
2023/04/28 05:51:50;;;;;;;;;;;;;;;;;;5048672;28;19925;-70
2023/04/28 05:54:17;;;;;;;;;;;;;;;;;;5049794;28;19932;-71
2023/04/28 05:56:48;;;;;;;;;;;;;;;;;;5024154;28;19980;-70
2023/04/28 05:59:15;;;;;;;;;;;;;;;;;;5036399;28;19929;-70
2023/04/28 06:01:42;;;;;;;;;;;;;;;;;;5037616;28;19937;-70
2023/04/28 06:04:09;;;;;;;;;;;;;;;;;;5026429;28;19929;-71
2023/04/28 06:06:37;;;;;;;;;;;;;;;;;;5054688;28;19925;-71
2023/04/28 06:09:05;;;;;;;;;;;;;;;;;;5039902;28;19932;-70
2023/04/28 06:11:33;;;;;;;;;;;;;;;;;;5024608;28;19925;-70
2023/04/28 06:14:00;;;;;;;;;;;;;;;;;;5033116;28;19925;-68
2023/04/28 06:16:27;;;;;;;;;;;;;;;;;;5025509;28;20366;-68
2023/04/28 06:18:54;;;;;;;;;;;;;;;;;;5039646;28;20347;-68
2023/04/28 06:21:23;;;;;;;;;;;;;;;;;;5030787;28;19975;-68
2023/04/28 06:23:50;;;;;;;;;;;;;;;;;;5047540;28;19971;-68
2023/04/28 06:26:17;;;;;;;;;;;;;;;;;;5051857;28;19929;-68
2023/04/28 06:28:45;;;;;;;;;;;;;;;;;;5030921;28;19929;-68
2023/04/28 06:31:12;;;;;;;;;;;;;;;;;;5030981;28;20020;-68
2023/04/28 06:33:39;;;;;;;;;;;;;;;;;;5030981;28;19932;-69
2023/04/28 06:36:06;;;;;;;;;;;;;;;;;;5039332;28;19932;-68
2023/04/28 06:38:34;;;;;;;;;;;;;;;;;;5030756;28;19975;-69
2023/04/28 06:41:01;;;;;;;;;;;;;;;;;;5056995;28;19931;-69
2023/04/28 06:43:28;;;;;;;;;;;;;;;;;;5056511;28;19992;-68
2023/04/28 06:46:09;;;;;;;;;;;;;;;;;;5030608;28;19925;-68
2023/04/28 06:48:36;;;;;;;;;;;;;;;;;;5043943;28;20397;-68
2023/04/28 06:51:03;;;;;;;;;;;;;;;;;;5028566;28;19976;-68
2023/04/28 06:53:30;;;;;;;;;;;;;;;;;;5025172;28;20396;-69
2023/04/28 06:55:59;;;;;;;;;;;;;;;;;;5045581;28;19925;-69
2023/04/28 06:58:28;;;;;;;;;;;;;;;;;;5050875;28;19936;-69
2023/04/28 07:00:55;;;;;;;;;;;;;;;;;;5029444;28;19948;-68
2023/04/28 07:03:22;;;;;;;;;;;;;;;;;;5036845;28;19925;-69
2023/04/28 07:05:49;;;;;;;;;;;;;;;;;;5043906;28;20384;-67
2023/04/28 07:08:16;;;;;;;;;;;;;;;;;;5038862;28;19925;-70
2023/04/28 07:10:43;;;;;;;;;;;;;;;;;;5051156;28;19933;-68
2023/04/28 07:13:10;;;;;;;;;;;;;;;;;;5033850;28;19925;-69
2023/04/28 07:15:37;;;;;;;;;;;;;;;;;;5049019;28;19929;-69
2023/04/28 07:18:04;;;;;;;;;;;;;;;;;;5050171;28;19929;-69
2023/04/28 07:20:31;;;;;;;;;;;;;;;;;;5033074;28;19956;-69
2023/04/28 07:22:59;;;;;;;;;;;;;;;;;;5034118;28;20055;-69
2023/04/28 07:25:26;;;;;;;;;;;;;;;;;;5033253;28;20304;-68
2023/04/28 07:27:54;;;;;;;;;;;;;;;;;;5050481;28;20454;-69
2023/04/28 07:30:21;;;;;;;;;;;;;;;;;;5054873;28;20351;-69
2023/04/28 07:32:48;;;;;;;;;;;;;;;;;;5049830;28;19929;-68
2023/04/28 07:35:15;;;;;;;;;;;;;;;;;;5033571;28;19983;-69
2023/04/28 07:37:42;;;;;;;;;;;;;;;;;;5034084;28;19975;-69
2023/04/28 07:40:09;;;;;;;;;;;;;;;;;;5051949;28;20354;-70
2023/04/28 07:42:36;;;;;;;;;;;;;;;;;;5033124;28;19936;-71
2023/04/28 07:45:03;;;;;;;;;;;;;;;;;;5033351;28;19991;-70
2023/04/28 07:47:30;;;;;;;;;;;;;;;;;;5032640;28;19925;-70
2023/04/28 07:49:59;;;;;;;;;;;;;;;;;;5049323;28;19925;-70
2023/04/28 07:52:26;;;;;;;;;;;;;;;;;;5033285;28;20365;-70
2023/04/28 07:54:53;;;;;;;;;;;;;;;;;;5032929;28;19933;-69
2023/04/28 07:57:20;;;;;;;;;;;;;;;;;;5033241;28;19925;-69
2023/04/28 07:59:47;;;;;;;;;;;;;;;;;;5050327;28;19925;-69
2023/04/28 08:02:14;;;;;;;;;;;;;;;;;;5054591;28;19925;-69
2023/04/28 08:04:41;;;;;;;;;;;;;;;;;;5032396;28;20323;-67
2023/04/28 08:07:09;;;;;;;;;;;;;;;;;;5034878;28;20318;-67
2023/04/28 08:09:36;;;;;;;;;;;;;;;;;;5058242;28;19928;-66
2023/04/28 08:12:03;;;;;;;;;;;;;;;;;;5049926;28;19957;-67
2023/04/28 08:14:30;;;;;;;;;;;;;;;;;;5038263;28;19960;-68
2023/04/28 08:16:57;;;;;;;;;;;;;;;;;;5049321;28;19929;-67
2023/04/28 08:19:24;;;;;;;;;;;;;;;;;;5036848;28;19925;-68
2023/04/28 08:21:51;;;;;;;;;;;;;;;;;;5047509;28;19972;-69
2023/04/28 08:24:18;;;;;;;;;;;;;;;;;;5036162;28;19925;-69
2023/04/28 08:26:45;;;;;;;;;;;;;;;;;;5051113;28;19987;-68
2023/04/28 08:29:12;;;;;;;;;;;;;;;;;;5054824;28;19978;-67
2023/04/28 08:31:40;;;;;;;;;;;;;;;;;;5060258;28;19983;-67
2023/04/28 08:34:07;;;;;;;;;;;;;;;;;;5046569;28;19999;-67
2023/04/28 08:36:34;;;;;;;;;;;;;;;;;;5031563;28;19980;-66
2023/04/28 08:39:02;;;;;;;;;;;;;;;;;;5056276;28;19925;-67
2023/04/28 08:41:29;;;;;;;;;;;;;;;;;;5031646;28;19936;-66
2023/04/28 08:43:56;;;;;;;;;;;;;;;;;;5040959;28;19933;-65
2023/04/28 08:46:23;;;;;;;;;;;;;;;;;;5038325;28;19926;-66
2023/04/28 08:48:50;;;;;;;;;;;;;;;;;;5039663;28;19987;-66
2023/04/28 08:51:17;;;;;;;;;;;;;;;;;;5035326;28;19924;-67
2023/04/28 08:53:44;;;;;;;;;;;;;;;;;;5065020;28;20311;-73
2023/04/28 08:56:12;;;;;;;;;;;;;;;;;;5050352;28;19925;-68
2023/04/28 08:58:39;;;;;;;;;;;;;;;;;;5029736;28;19935;-67
2023/04/28 09:01:06;;;;;;;;;;;;;;;;;;5054924;28;19925;-67
2023/04/28 09:03:33;;;;;;;;;;;;;;;;;;5031038;28;19925;-67
2023/04/28 09:06:01;;;;;;;;;;;;;;;;;;5046611;28;19933;-72
2023/04/28 09:08:28;;;;;;;;;;;;;;;;;;5029499;28;19929;-66
2023/04/28 09:10:55;;;;;;;;;;;;;;;;;;5043687;28;19979;-67
2023/04/28 09:13:22;;;;;;;;;;;;;;;;;;5032081;28;19932;-66
2023/04/28 09:15:49;;;;;;;;;;;;;;;;;;5047079;28;20355;-66
2023/04/28 09:18:16;;;;;;;;;;;;;;;;;;5059559;28;19925;-67
2023/04/28 09:20:44;;;;;;;;;;;;;;;;;;5030974;28;19929;-66
2023/04/28 09:23:11;;;;;;;;;;;;;;;;;;5030852;28;19925;-67
2023/04/28 09:25:38;;;;;;;;;;;;;;;;;;5030699;28;19979;-66
2023/04/28 09:28:05;;;;;;;;;;;;;;;;;;5047287;28;19948;-68
2023/04/28 09:30:32;;;;;;;;;;;;;;;;;;5036417;28;19929;-66
2023/04/28 09:32:59;;;;;;;;;;;;;;;;;;5045179;28;19937;-75
2023/04/28 09:35:26;;;;;;;;;;;;;;;;;;5027477;28;19956;-67
2023/04/28 09:37:53;;;;;;;;;;;;;;;;;;5055489;28;19928;-67
2023/04/28 09:40:20;;;;;;;;;;;;;;;;;;5030681;28;19929;-71
2023/04/28 09:42:47;;;;;;;;;;;;;;;;;;5030828;28;19932;-68
2023/04/28 09:45:14;;;;;;;;;;;;;;;;;;5037510;28;19983;-68
2023/04/28 09:47:41;;;;;;;;;;;;;;;;;;5046377;28;19932;-68
2023/04/28 09:50:13;;;;;;;;;;;;;;;;;;5030720;28;19925;-66
2023/04/28 09:52:40;;;;;;;;;;;;;;;;;;5029059;28;19936;-65
2023/04/28 09:55:07;;;;;;;;;;;;;;;;;;5029748;28;19926;-63
2023/04/28 09:57:34;;;;;;;;;;;;;;;;;;5030356;28;19932;-65
2023/04/28 10:00:04;;;;;;;;;;;;;;;;;;5027274;28;19925;-67
2023/04/28 10:02:31;;;;;;;;;;;;;;;;;;5029301;28;19980;-66
2023/04/28 10:04:58;;;;;;;;;;;;;;;;;;5038461;28;19925;-69
2023/04/28 10:07:25;;;;;;;;;;;;;;;;;;5049390;28;19925;-68
2023/04/28 10:09:52;;;;;;;;;;;;;;;;;;5036999;28;19979;-68
2023/04/28 10:12:20;;;;;;;;;;;;;;;;;;5031684;28;19932;-67
2023/04/28 10:14:48;;;;;;;;;;;;;;;;;;5029080;28;19975;-69
2023/04/28 10:17:15;;;;;;;;;;;;;;;;;;5048352;28;19925;-69
2023/04/28 10:19:43;;;;;;;;;;;;;;;;;;5039651;28;20265;-69
2023/04/28 10:22:10;;;;;;;;;;;;;;;;;;5049556;28;19929;-70
2023/04/28 10:24:37;;;;;;;;;;;;;;;;;;5028652;28;19972;-67
2023/04/28 10:27:04;;;;;;;;;;;;;;;;;;5051323;28;19929;-69
2023/04/28 10:29:32;;;;;;;;;;;;;;;;;;5048270;28;20388;-69
2023/04/28 10:31:59;;;;;;;;;;;;;;;;;;5062107;28;19925;-67
2023/04/28 10:34:27;;;;;;;;;;;;;;;;;;5038957;28;19931;-68
2023/04/28 10:36:56;;;;;;;;;;;;;;;;;;5061653;28;20403;-69
2023/04/28 10:39:23;;;;;;;;;;;;;;;;;;5054472;28;19929;-69
2023/04/28 10:41:50;;;;;;;;;;;;;;;;;;5057240;28;19925;-68
2023/04/28 10:44:17;;;;;;;;;;;;;;;;;;5037067;28;20307;-69
2023/04/28 10:46:44;;;;;;;;;;;;;;;;;;5039708;28;19978;-69
2023/04/28 10:49:11;;;;;;;;;;;;;;;;;;5061927;28;20027;-69
2023/04/28 10:51:38;;;;;;;;;;;;;;;;;;5052421;28;19930;-69
2023/04/28 10:54:05;;;;;;;;;;;;;;;;;;5054450;28;19928;-68
2023/04/28 10:56:32;;;;;;;;;;;;;;;;;;5041453;28;20323;-68
2023/04/28 10:58:59;;;;;;;;;;;;;;;;;;5060417;28;19960;-68
2023/04/28 11:01:27;;;;;;;;;;;;;;;;;;5044435;28;19925;-67
2023/04/28 11:03:58;;;;;;;;;;;;;;;;;;5039093;28;19929;-69
2023/04/28 11:06:26;;;;;;;;;;;;;;;;;;5056031;28;19925;-69
2023/04/28 11:08:54;;;;;;;;;;;;;;;;;;5055385;28;19925;-67
2023/04/28 11:11:21;;;;;;;;;;;;;;;;;;5066564;28;20169;-65
2023/04/28 11:13:48;;;;;;;;;;;;;;;;;;5035428;28;20348;-69
2023/04/28 11:16:16;;;;;;;;;;;;;;;;;;5035717;28;19940;-69
2023/04/28 11:18:43;;;;;;;;;;;;;;;;;;5062979;28;19925;-69
2023/04/28 11:21:10;;;;;;;;;;;;;;;;;;5048859;28;20472;-69
2023/04/28 11:23:37;;;;;;;;;;;;;;;;;;5030548;28;20363;-69
2023/04/28 11:26:04;;;;;;;;;;;;;;;;;;5043660;28;19926;-69
2023/04/28 11:28:31;;;;;;;;;;;;;;;;;;5027645;28;19925;-67
2023/04/28 11:30:58;;;;;;;;;;;;;;;;;;5040996;28;20347;-66
2023/04/28 11:33:25;;;;;;;;;;;;;;;;;;5048866;28;20353;-67
2023/04/28 11:35:52;;;;;;;;;;;;;;;;;;5054163;28;20312;-68
2023/04/28 11:38:19;;;;;;;;;;;;;;;;;;5033265;28;19955;-68
2023/04/28 11:40:46;;;;;;;;;;;;;;;;;;5054951;28;20457;-68
2023/04/28 11:43:13;;;;;;;;;;;;;;;;;;5040107;28;19948;-68
2023/04/28 11:45:41;;;;;;;;;;;;;;;;;;5035401;28;19987;-69
2023/04/28 11:48:08;;;;;;;;;;;;;;;;;;5040050;28;19971;-69
2023/04/28 11:50:35;;;;;;;;;;;;;;;;;;5051973;28;19925;-69
2023/04/28 11:53:02;;;;;;;;;;;;;;;;;;5051691;28;20355;-69
2023/04/28 11:55:29;;;;;;;;;;;;;;;;;;5049598;28;19975;-67
2023/04/28 11:57:56;;;;;;;;;;;;;;;;;;5043520;28;19925;-70
2023/04/28 12:00:23;;;;;;;;;;;;;;;;;;5048268;28;19925;-69
2023/04/28 12:02:50;;;;;;;;;;;;;;;;;;5042510;28;19929;-69
2023/04/28 12:05:19;;;;;;;;;;;;;;;;;;5036857;28;19928;-69
2023/04/28 12:07:46;;;;;;;;;;;;;;;;;;5059854;28;20303;-69
2023/04/28 12:10:14;;;;;;;;;;;;;;;;;;5052133;28;19925;-69
2023/04/28 12:12:41;;;;;;;;;;;;;;;;;;5055927;28;19975;-69
2023/04/28 12:15:08;;;;;;;;;;;;;;;;;;5056735;28;20285;-69
2023/04/28 12:17:36;;;;;;;;;;;;;;;;;;5035578;28;19925;-68
2023/04/28 12:20:03;;;;;;;;;;;;;;;;;;5035635;28;19933;-69
2023/04/28 12:22:30;;;;;;;;;;;;;;;;;;5047395;28;19925;-70
2023/04/28 12:24:58;;;;;;;;;;;;;;;;;;5048938;28;20366;-69
2023/04/28 12:27:27;;;;;;;;;;;;;;;;;;5043300;28;19925;-69
2023/04/28 12:29:55;;;;;;;;;;;;;;;;;;5037175;28;19933;-69
2023/04/28 12:32:22;;;;;;;;;;;;;;;;;;5042242;28;19932;-69
2023/04/28 12:34:50;;;;;;;;;;;;;;;;;;5041982;28;19979;-69
2023/04/28 12:37:17;;;;;;;;;;;;;;;;;;5053178;28;19931;-69
2023/04/28 12:39:44;;;;;;;;;;;;;;;;;;5052384;28;20326;-69
2023/04/28 12:42:11;;;;;;;;;;;;;;;;;;5051481;28;19933;-69
2023/04/28 12:44:39;;;;;;;;;;;;;;;;;;5032222;28;19928;-70
2023/04/28 12:47:06;;;;;;;;;;;;;;;;;;5042929;28;20292;-70
2023/04/28 12:49:34;;;;;;;;;;;;;;;;;;5054355;28;19933;-69
2023/04/28 12:52:01;;;;;;;;;;;;;;;;;;5042724;28;19925;-69
2023/04/28 12:54:28;;;;;;;;;;;;;;;;;;5039288;28;19925;-70
2023/04/28 12:56:55;;;;;;;;;;;;;;;;;;5032340;28;19960;-69
2023/04/28 12:59:22;;;;;;;;;;;;;;;;;;5041533;28;19937;-70
2023/04/28 13:01:49;;;;;;;;;;;;;;;;;;5052379;28;19932;-69
2023/04/28 13:04:16;;;;;;;;;;;;;;;;;;5057130;28;19936;-68
2023/04/28 13:06:43;;;;;;;;;;;;;;;;;;5055338;28;19941;-70
2023/04/28 13:09:11;;;;;;;;;;;;;;;;;;5049724;28;19964;-69
2023/04/28 13:11:38;;;;;;;;;;;;;;;;;;5050768;28;19936;-69
2023/04/28 13:14:05;;;;;;;;;;;;;;;;;;5038950;28;19929;-69
2023/04/28 13:16:34;;;;;;;;;;;;;;;;;;5036075;28;20335;-69
2023/04/28 13:19:01;;;;;;;;;;;;;;;;;;5031559;28;19925;-70
2023/04/28 13:21:28;;;;;;;;;;;;;;;;;;5035041;28;19961;-70
2023/04/28 13:23:56;;;;;;;;;;;;;;;;;;5063954;28;19929;-70
2023/04/28 13:26:23;;;;;;;;;;;;;;;;;;5046235;28;19925;-69
2023/04/28 13:28:50;;;;;;;;;;;;;;;;;;5058027;28;19925;-69
2023/04/28 13:31:17;;;;;;;;;;;;;;;;;;5039468;28;19925;-71
2023/04/28 13:33:45;;;;;;;;;;;;;;;;;;5029120;28;19933;-70
2023/04/28 13:36:12;;;;;;;;;;;;;;;;;;5031604;28;19929;-70
2023/04/28 13:38:39;;;;;;;;;;;;;;;;;;5031650;28;19932;-70
2023/04/28 13:41:06;;;;;;;;;;;;;;;;;;5035640;28;19929;-70
2023/04/28 13:43:33;;;;;;;;;;;;;;;;;;5035345;28;19926;-68
2023/04/28 13:46:00;;;;;;;;;;;;;;;;;;5030033;28;19976;-70
2023/04/28 13:48:28;;;;;;;;;;;;;;;;;;5036719;28;19961;-70
2023/04/28 13:50:55;;;;;;;;;;;;;;;;;;5058799;28;19928;-70
2023/04/28 13:53:22;;;;;;;;;;;;;;;;;;5050184;28;19940;-71
2023/04/28 13:55:49;;;;;;;;;;;;;;;;;;5036198;28;19972;-70
2023/04/28 13:58:16;;;;;;;;;;;;;;;;;;5040541;28;19932;-70
2023/04/28 14:00:43;;;;;;;;;;;;;;;;;;5039789;28;19970;-70
2023/04/28 14:03:10;;;;;;;;;;;;;;;;;;5059832;28;19964;-70
2023/04/28 14:05:37;;;;;;;;;;;;;;;;;;5046064;28;20339;-70
2023/04/28 14:08:05;;;;;;;;;;;;;;;;;;5034797;28;20022;-70
2023/04/28 14:10:32;;;;;;;;;;;;;;;;;;5045687;28;19925;-70
2023/04/28 14:12:59;;;;;;;;;;;;;;;;;;5062202;28;19979;-70
2023/04/28 14:15:26;;;;;;;;;;;;;;;;;;5055988;28;19951;-70
2023/04/28 14:17:53;;;;;;;;;;;;;;;;;;5040324;28;19952;-70
2023/04/28 14:20:20;;;;;;;;;;;;;;;;;;5060073;28;19975;-70
2023/04/28 14:22:47;;;;;;;;;;;;;;;;;;5034519;28;19925;-71
2023/04/28 14:25:15;;;;;;;;;;;;;;;;;;5057441;28;19933;-69
2023/04/28 14:27:42;;;;;;;;;;;;;;;;;;5055324;28;19924;-70
2023/04/28 14:30:09;;;;;;;;;;;;;;;;;;5051861;28;19925;-70
2023/04/28 14:32:37;;;;;;;;;;;;;;;;;;5041438;28;19925;-70
2023/04/28 14:35:04;;;;;;;;;;;;;;;;;;5046536;28;19924;-70
2023/04/28 14:37:32;;;;;;;;;;;;;;;;;;5059008;28;19925;-70
2023/04/28 14:39:59;;;;;;;;;;;;;;;;;;5039840;28;19925;-70
2023/04/28 14:42:27;;;;;;;;;;;;;;;;;;5037941;28;19932;-70
2023/04/28 14:44:54;;;;;;;;;;;;;;;;;;5039312;28;19925;-70
2023/04/28 14:47:21;;;;;;;;;;;;;;;;;;5060825;28;19925;-70
2023/04/28 14:49:48;;;;;;;;;;;;;;;;;;5034173;28;19968;-70
2023/04/28 14:52:16;;;;;;;;;;;;;;;;;;5033779;28;19928;-69
2023/04/28 14:54:43;;;;;;;;;;;;;;;;;;5033816;28;19925;-70
2023/04/28 14:57:10;;;;;;;;;;;;;;;;;;5041475;28;19969;-69
2023/04/28 14:59:37;;;;;;;;;;;;;;;;;;5059870;28;20359;-69
2023/04/28 15:02:05;;;;;;;;;;;;;;;;;;5041195;28;19929;-69
2023/04/28 15:04:32;;;;;;;;;;;;;;;;;;5050724;28;19925;-69
2023/04/28 15:07:00;;;;;;;;;;;;;;;;;;5025548;28;19925;-68
2023/04/28 15:09:27;;;;;;;;;;;;;;;;;;5050407;28;19947;-70
2023/04/28 15:11:54;;;;;;;;;;;;;;;;;;5054136;28;20028;-70
2023/04/28 15:14:21;;;;;;;;;;;;;;;;;;5053446;28;19986;-71
2023/04/28 15:16:48;;;;;;;;;;;;;;;;;;5061210;28;19928;-71
2023/04/28 15:19:15;;;;;;;;;;;;;;;;;;5045893;28;20004;-70
2023/04/28 15:21:42;;;;;;;;;;;;;;;;;;5046759;28;19928;-73
2023/04/28 15:24:09;;;;;;;;;;;;;;;;;;5060143;28;19925;-70
2023/04/28 15:26:36;;;;;;;;;;;;;;;;;;5046604;28;19982;-68
2023/04/28 15:29:03;;;;;;;;;;;;;;;;;;5067231;28;19963;-69
2023/04/28 15:31:30;;;;;;;;;;;;;;;;;;5040687;28;20457;-69
2023/04/28 15:33:57;;;;;;;;;;;;;;;;;;5033182;28;19952;-69
2023/04/28 15:36:25;;;;;;;;;;;;;;;;;;5055240;28;19928;-69
2023/04/28 15:38:52;;;;;;;;;;;;;;;;;;5029561;28;19925;-68
2023/04/28 15:41:19;;;;;;;;;;;;;;;;;;5061831;28;19932;-70
2023/04/28 15:43:48;;;;;;;;;;;;;;;;;;5036311;28;19959;-69
2023/04/28 15:46:16;;;;;;;;;;;;;;;;;;5045809;28;20319;-69
2023/04/28 15:48:43;;;;;;;;;;;;;;;;;;5053243;28;19925;-67
2023/04/28 15:51:10;;;;;;;;;;;;;;;;;;5057268;28;19925;-69
2023/04/28 15:53:38;;;;;;;;;;;;;;;;;;5039613;28;19925;-69
2023/04/28 15:56:05;;;;;;;;;;;;;;;;;;5027214;28;19929;-68
2023/04/28 15:58:32;;;;;;;;;;;;;;;;;;5055639;28;19947;-68
2023/04/28 16:00:59;;;;;;;;;;;;;;;;;;5021318;28;19926;-69
2023/04/28 16:03:26;;;;;;;;;;;;;;;;;;5038713;28;19925;-69
2023/04/28 16:05:53;;;;;;;;;;;;;;;;;;5030959;28;20331;-69
2023/04/28 16:08:23;;;;;;;;;;;;;;;;;;5054219;28;20020;-70
2023/04/28 16:10:50;;;;;;;;;;;;;;;;;;5059271;28;19925;-69
2023/04/28 16:13:17;;;;;;;;;;;;;;;;;;5058312;28;20301;-69
2023/04/28 16:15:44;;;;;;;;;;;;;;;;;;5029891;28;20388;-70
2023/04/28 16:18:11;;;;;;;;;;;;;;;;;;5052888;28;19998;-71
2023/04/28 16:20:39;;;;;;;;;;;;;;;;;;5030715;28;19925;-68
2023/04/28 16:23:06;;;;;;;;;;;;;;;;;;5032500;28;19929;-69
2023/04/28 16:25:34;;;;;;;;;;;;;;;;;;5029562;28;19936;-67
2023/04/28 16:28:01;;;;;;;;;;;;;;;;;;5058332;28;19924;-68
2023/04/28 16:30:28;;;;;;;;;;;;;;;;;;5033392;28;19925;-70
2023/04/28 16:32:57;;;;;;;;;;;;;;;;;;5056636;28;19929;-67
2023/04/28 16:35:24;;;;;;;;;;;;;;;;;;5025727;28;19925;-69
2023/04/28 16:37:51;;;;;;;;;;;;;;;;;;5037382;28;20385;-67
2023/04/28 16:40:18;;;;;;;;;;;;;;;;;;5048429;28;20468;-67
2023/04/28 16:42:45;;;;;;;;;;;;;;;;;;5057195;28;19929;-68
2023/04/28 16:45:12;;;;;;;;;;;;;;;;;;5049065;28;19925;-68
2023/04/28 16:47:41;;;;;;;;;;;;;;;;;;5054767;28;20366;-69